Plumtree, NC (28664)

7:55 AM EDT on September 01, 2015 (GMT -0400)
NonFedAWOS | | Change Station
CLOSE
Current Station
Personal Weather Station
Location: Linville Falls, NC
Elevation: 2750 ft
Nearby Weather Stations

Elev 2750 ft 35.94 °N, 82.00 °W | Updated 40 minutes ago

Clear
Clear
59 °F
Feels Like 59 °F
N
0
Wind Variable Wind from North
Gusts 0.0 mph

Today
High -- | Low -- °F
--% Chance of Precip.
Yesterday
High -- | Low -- °F
Precip. -- in
6:59 AM 7:55 PM
Waning Gibbous, 89% visible
Pressure 30.11 in
Visibility 6.0 miles
Clouds Few 4800 ft
Dew Point 55 °F
Humidity 88%
Rainfall in
Snow Depth Not available.
UV 0 out of 12
Pollen 8.80 out of 12
Air Quality Not available.
Flu Activity Not available.
METAR KTRI 011053Z 00000KT 6SM BR FEW048 17/16 A3018 RMK AO2 SLP194 T01670161
Pressure 30.11 in
Visibility 6.0 miles
Clouds Few 4800 ft
Dew Point 55 °F
Humidity 88%
Rainfall in
Snow Depth Not available.
UV 0 out of 12
Pollen 8.80 out of 12
Air Quality Not available.
Flu Activity Not available.
METAR KTRI 011053Z 00000KT 6SM BR FEW048 17/16 A3018 RMK AO2 SLP194 T01670161

10-Day Weather Forecast

×

Almanac

Astronomy

Sep. 01, 2015 Rise Set
Actual Time
Civil Twilight
Nautical Twilight
Astronomical Twilight
Moon
Length of Visible Light
Length of Day
Tomorrow will be .
, % of the Moon is Illuminated

Today's Extremes

State Highs State Lows

Community

WunderPhotos

Upload Photos

1,851,506 photos uploaded!

WunderBlogs® & News

Nearby

Air Quality

  Air Quality AQ Index Pollutant
Not available.

Snow Depth

Station Depth Elevation

Earthquake Activity

City Distance Mag. Time & Date
Minimum magnitude displayed is 2.5.

Coastal Water Temperatures

Place Temperature

Stations

Nearby Weather Stations

Station Location Temp. Windchill Dew Point Humidity Wind Precip. Elev Updated Type